Time;durP1;ratioP1;P1;durP2;ratioP2;P2;SDS_P1;SDS_P2;PMS_P1;PMS_P2;Temp;Humidity;BMP_temperature;BMP_pressure;BME280_temperature;BME280_humidity;BME280_pressure;Samples;Min_cycle;Max_cycle;Signal;HPM_P1;HPM_P2
2023/08/23 00:01:06;;;;;;;7.80;6.00;;;22.90;99.90;;;;;;5088019;28;20272;-59
2023/08/23 00:03:32;;;;;;;8.30;6.83;;;22.80;99.90;;;;;;5085958;28;20246;-58
2023/08/23 00:05:57;;;;;;;8.47;6.10;;;22.70;99.90;;;;;;5086267;28;20192;-58
2023/08/23 00:08:23;;;;;;;12.17;7.07;;;22.70;99.90;;;;;;5084654;28;20710;-59
2023/08/23 00:10:55;;;;;;;9.20;6.20;;;22.60;99.90;;;;;;5091357;28;20629;-59
2023/08/23 00:13:22;;;;;;;10.93;6.90;;;22.60;99.90;;;;;;5081719;28;20235;-58
2023/08/23 00:15:47;;;;;;;9.60;7.30;;;22.60;99.90;;;;;;5070007;28;20419;-58
2023/08/23 00:18:13;;;;;;;14.17;6.67;;;22.50;99.90;;;;;;5086873;28;21118;-58
2023/08/23 00:20:39;;;;;;;13.53;6.70;;;22.50;99.90;;;;;;5083695;28;20201;-58
2023/08/23 00:23:04;;;;;;;11.70;7.00;;;22.40;99.90;;;;;;5081511;28;20189;-58
2023/08/23 00:25:30;;;;;;;9.77;6.90;;;22.40;99.90;;;;;;5091199;28;20186;-59
2023/08/23 00:27:55;;;;;;;10.03;7.43;;;22.40;99.90;;;;;;5084507;28;20181;-59
2023/08/23 00:30:21;;;;;;;11.70;7.50;;;22.40;99.90;;;;;;5085442;28;20205;-58
2023/08/23 00:32:47;;;;;;;8.13;7.27;;;22.40;99.90;;;;;;5087475;28;20284;-59
2023/08/23 00:35:12;;;;;;;8.30;7.30;;;22.40;99.90;;;;;;5087971;28;20634;-59
2023/08/23 00:37:38;;;;;;;14.20;6.90;;;22.40;99.90;;;;;;5085576;28;20261;-60
2023/08/23 00:40:05;;;;;;;10.70;7.27;;;22.30;99.90;;;;;;5086256;28;20190;-60
2023/08/23 00:42:31;;;;;;;11.70;7.17;;;22.30;99.90;;;;;;5083786;28;20213;-60
2023/08/23 00:44:56;;;;;;;8.60;6.00;;;22.20;99.90;;;;;;5084646;28;20532;-59
2023/08/23 00:47:22;;;;;;;7.27;6.23;;;22.20;99.90;;;;;;5087697;28;20178;-60
2023/08/23 00:49:48;;;;;;;10.33;6.70;;;22.10;99.90;;;;;;5087261;28;20194;-59
2023/08/23 00:52:15;;;;;;;8.60;6.30;;;22.10;99.90;;;;;;5069654;28;20257;-60
2023/08/23 00:54:41;;;;;;;8.97;6.70;;;22.00;99.90;;;;;;5083049;28;20258;-59
2023/08/23 00:57:07;;;;;;;10.27;7.13;;;22.00;99.90;;;;;;5080026;28;20475;-60
2023/08/23 00:59:35;;;;;;;10.93;6.70;;;22.00;99.90;;;;;;5086669;28;20193;-60
2023/08/23 01:02:01;;;;;;;10.20;6.53;;;22.00;99.90;;;;;;5087820;28;20466;-60
2023/08/23 01:04:27;;;;;;;8.23;6.60;;;22.00;99.90;;;;;;5089136;28;20459;-60
2023/08/23 01:07:12;;;;;;;13.10;6.53;;;22.00;99.90;;;;;;5094565;28;20816;-59
2023/08/23 01:10:05;;;;;;;16.80;7.00;;;21.90;99.90;;;;;;5088512;28;20188;-59
2023/08/23 01:12:45;;;;;;;10.20;6.70;;;21.90;99.90;;;;;;5090741;28;20436;-59
2023/08/23 01:15:12;;;;;;;8.97;6.80;;;21.90;99.90;;;;;;5089243;28;20951;-59
2023/08/23 01:17:42;;;;;;;9.60;6.63;;;21.90;99.90;;;;;;5090947;28;20561;-59
2023/08/23 01:20:12;;;;;;;8.90;7.03;;;21.80;99.90;;;;;;5096889;28;20448;-61
2023/08/23 01:23:08;;;;;;;11.03;7.43;;;21.80;99.90;;;;;;5089313;28;20481;-61
2023/08/23 01:25:34;;;;;;;9.13;7.33;;;21.80;99.90;;;;;;5090638;28;20430;-60
2023/08/23 01:27:59;;;;;;;8.70;7.33;;;21.80;99.90;;;;;;5096612;28;20423;-60
2023/08/23 01:30:27;;;;;;;9.57;7.20;;;21.70;99.90;;;;;;5092347;28;20202;-59
2023/08/23 01:33:24;;;;;;;13.13;8.17;;;21.70;99.90;;;;;;5090383;28;20768;-59
2023/08/23 01:36:17;;;;;;;11.23;7.60;;;21.70;99.90;;;;;;5083813;28;20435;-60
2023/08/23 01:38:45;;;;;;;8.83;6.97;;;21.60;99.90;;;;;;5090049;28;20431;-60
2023/08/23 01:41:11;;;;;;;9.73;7.90;;;21.60;99.90;;;;;;5092559;28;20485;-61
2023/08/23 01:43:36;;;;;;;11.50;7.20;;;21.60;99.90;;;;;;5086790;28;20845;-60
2023/08/23 01:46:02;;;;;;;7.30;6.37;;;21.50;99.90;;;;;;5086474;28;20201;-59
2023/08/23 01:48:27;;;;;;;14.27;6.33;;;21.50;99.90;;;;;;5084454;28;20201;-61
2023/08/23 01:50:53;;;;;;;9.30;6.00;;;21.40;99.90;;;;;;5087511;28;20193;-60
2023/08/23 01:53:19;;;;;;;8.70;6.10;;;21.40;99.90;;;;;;5084501;28;20229;-59
2023/08/23 01:55:45;;;;;;;7.13;6.27;;;21.30;99.90;;;;;;5083239;28;20471;-60
2023/08/23 01:58:10;;;;;;;8.47;5.73;;;21.30;99.90;;;;;;5085134;28;20177;-60
2023/08/23 02:00:36;;;;;;;8.90;6.50;;;21.30;99.90;;;;;;5088614;28;20614;-59
2023/08/23 02:03:01;;;;;;;13.00;7.33;;;21.20;99.90;;;;;;5087663;28;20182;-60
2023/08/23 02:05:30;;;;;;;8.37;6.80;;;21.20;99.90;;;;;;5085671;28;20223;-59
2023/08/23 02:07:55;;;;;;;15.37;7.20;;;21.20;99.90;;;;;;5088973;28;20727;-59
2023/08/23 02:10:21;;;;;;;8.43;6.57;;;21.20;99.90;;;;;;5087317;28;20479;-59
2023/08/23 02:12:47;;;;;;;8.50;6.57;;;21.10;99.90;;;;;;5088152;28;20251;-60
2023/08/23 02:15:12;;;;;;;7.90;6.23;;;21.10;99.90;;;;;;5086448;28;20174;-59
2023/08/23 02:17:38;;;;;;;7.10;6.40;;;21.10;99.90;;;;;;5088022;28;20486;-60
2023/08/23 02:20:04;;;;;;;10.90;6.43;;;21.10;99.90;;;;;;5091603;28;20197;-59
2023/08/23 02:22:30;;;;;;;8.43;5.77;;;21.10;99.90;;;;;;5087945;28;20752;-60
2023/08/23 02:24:55;;;;;;;11.47;6.60;;;21.10;99.90;;;;;;5087414;28;20518;-60
2023/08/23 02:27:21;;;;;;;9.13;6.00;;;21.10;99.90;;;;;;5085758;28;20547;-59
2023/08/23 02:29:47;;;;;;;8.67;6.47;;;21.10;99.90;;;;;;5088729;28;20189;-59
2023/08/23 02:32:12;;;;;;;10.37;7.13;;;21.00;99.90;;;;;;5090095;28;20553;-60
2023/08/23 02:34:38;;;;;;;12.00;6.50;;;21.00;99.90;;;;;;5088421;28;20209;-59
2023/08/23 02:37:03;;;;;;;10.00;6.37;;;21.00;99.90;;;;;;5084043;28;20182;-59
2023/08/23 02:39:29;;;;;;;7.83;6.40;;;20.90;99.90;;;;;;5092102;28;20633;-59
2023/08/23 02:41:54;;;;;;;8.13;7.00;;;20.90;99.90;;;;;;5091180;28;20205;-59
2023/08/23 02:44:20;;;;;;;8.63;6.87;;;20.90;99.90;;;;;;5086633;28;20174;-59
2023/08/23 02:46:45;;;;;;;11.93;7.60;;;20.80;99.90;;;;;;5082648;28;20646;-59
2023/08/23 02:49:11;;;;;;;9.07;7.03;;;20.80;99.90;;;;;;5088270;28;20174;-59
2023/08/23 02:51:37;;;;;;;11.13;6.97;;;20.70;99.90;;;;;;5086297;28;20198;-59
2023/08/23 02:54:03;;;;;;;8.70;7.20;;;20.70;99.90;;;;;;5088461;28;20888;-59
2023/08/23 02:56:29;;;;;;;9.07;7.23;;;20.70;99.90;;;;;;5087956;28;20173;-59
2023/08/23 02:58:55;;;;;;;8.50;6.90;;;20.70;99.90;;;;;;5090901;28;20978;-59
2023/08/23 03:01:20;;;;;;;8.77;7.17;;;20.70;99.90;;;;;;5083663;28;20663;-59
2023/08/23 03:03:46;;;;;;;11.33;7.00;;;20.70;99.90;;;;;;5089321;28;20173;-60
2023/08/23 03:06:11;;;;;;;9.30;7.53;;;20.70;99.90;;;;;;5088285;28;20181;-59
2023/08/23 03:08:37;;;;;;;7.23;6.30;;;20.60;99.90;;;;;;5089131;28;20228;-59
2023/08/23 03:11:06;;;;;;;7.43;6.53;;;20.60;99.90;;;;;;5087625;28;20193;-59
2023/08/23 03:13:32;;;;;;;10.03;7.47;;;20.60;99.90;;;;;;5087286;28;20237;-59
2023/08/23 03:16:00;;;;;;;16.20;7.07;;;20.60;99.90;;;;;;5087853;28;20424;-60
2023/08/23 03:18:25;;;;;;;8.17;6.73;;;20.60;99.90;;;;;;5088658;28;21279;-60
2023/08/23 03:20:51;;;;;;;7.80;6.63;;;20.60;99.90;;;;;;5080876;28;20447;-59
2023/08/23 03:23:18;;;;;;;14.93;6.73;;;20.60;99.90;;;;;;5088018;28;20365;-59
2023/08/23 03:25:48;;;;;;;10.83;7.00;;;20.60;99.90;;;;;;5086359;28;20182;-59
2023/08/23 03:28:14;;;;;;;7.20;6.50;;;20.60;99.90;;;;;;5088864;28;20478;-60
2023/08/23 03:30:40;;;;;;;8.07;6.90;;;20.50;99.90;;;;;;5084027;28;20455;-59
2023/08/23 03:33:06;;;;;;;8.17;6.70;;;20.50;99.90;;;;;;5088349;28;20208;-59
2023/08/23 03:35:32;;;;;;;11.63;6.60;;;20.50;99.90;;;;;;5083129;28;20809;-60
2023/08/23 03:37:58;;;;;;;10.90;7.00;;;20.40;99.90;;;;;;5088153;28;20181;-59
2023/08/23 03:40:23;;;;;;;9.70;6.40;;;20.40;99.90;;;;;;5085538;28;20451;-60
2023/08/23 03:42:49;;;;;;;12.03;7.60;;;20.40;99.90;;;;;;5086994;28;20169;-60
2023/08/23 03:45:17;;;;;;;23.00;7.57;;;20.40;99.90;;;;;;5093587;28;20234;-59
2023/08/23 03:47:43;;;;;;;11.50;6.83;;;20.30;99.90;;;;;;5087933;28;20226;-60
2023/08/23 03:50:10;;;;;;;7.90;6.93;;;20.30;99.90;;;;;;5087882;28;20440;-60
2023/08/23 03:52:35;;;;;;;10.40;7.40;;;20.30;99.90;;;;;;5089950;28;20178;-58
2023/08/23 03:55:02;;;;;;;10.70;7.17;;;20.20;99.90;;;;;;5089587;28;20501;-59
2023/08/23 03:57:27;;;;;;;10.73;6.80;;;20.20;99.90;;;;;;5083069;28;20186;-58
2023/08/23 03:59:53;;;;;;;11.43;7.83;;;20.20;99.90;;;;;;5093938;28;20454;-58
2023/08/23 04:02:19;;;;;;;10.20;7.47;;;20.20;99.90;;;;;;5085760;28;20186;-59
2023/08/23 04:04:45;;;;;;;7.87;6.90;;;20.20;99.90;;;;;;5084611;28;20178;-59
2023/08/23 04:07:13;;;;;;;8.53;6.70;;;20.10;99.90;;;;;;5091129;28;20439;-58
2023/08/23 04:09:39;;;;;;;9.47;6.73;;;20.10;99.90;;;;;;5083803;28;20768;-60
2023/08/23 04:12:05;;;;;;;13.73;7.40;;;20.10;99.90;;;;;;5087139;28;20439;-59
2023/08/23 04:14:31;;;;;;;11.50;7.73;;;20.10;99.90;;;;;;5084314;28;20216;-59
2023/08/23 04:16:56;;;;;;;14.37;7.87;;;20.10;99.90;;;;;;5086796;28;20439;-59
2023/08/23 04:19:26;;;;;;;10.90;6.53;;;20.10;99.90;;;;;;5071799;28;20204;-58
2023/08/23 04:21:51;;;;;;;11.20;8.10;;;20.10;99.90;;;;;;5086459;28;20177;-58
2023/08/23 04:24:17;;;;;;;9.80;7.00;;;20.00;99.90;;;;;;5087010;28;20428;-59
2023/08/23 04:26:43;;;;;;;10.70;7.67;;;20.00;99.90;;;;;;5087076;28;20181;-60
2023/08/23 04:29:08;;;;;;;11.40;7.17;;;20.00;99.90;;;;;;5082600;28;20832;-59
2023/08/23 04:31:34;;;;;;;18.83;8.83;;;20.00;99.90;;;;;;5080748;28;20745;-58
2023/08/23 04:34:02;;;;;;;11.37;7.60;;;20.00;99.90;;;;;;5089078;28;20229;-59
2023/08/23 04:36:28;;;;;;;11.67;8.20;;;20.00;99.90;;;;;;5087316;28;20174;-59
2023/08/23 04:38:54;;;;;;;13.43;7.57;;;20.00;99.90;;;;;;5091185;28;20423;-58
2023/08/23 04:41:19;;;;;;;11.23;6.60;;;20.00;99.90;;;;;;5089787;28;20789;-59
2023/08/23 04:43:45;;;;;;;8.70;7.00;;;19.90;99.90;;;;;;5086973;28;20186;-59
2023/08/23 04:46:11;;;;;;;14.73;7.60;;;19.90;99.90;;;;;;5092372;28;20185;-58
2023/08/23 04:48:36;;;;;;;10.73;7.23;;;19.90;99.90;;;;;;5089626;28;20242;-59
2023/08/23 04:51:04;;;;;;;9.60;6.80;;;19.90;99.90;;;;;;5081493;28;20198;-58
2023/08/23 04:53:29;;;;;;;9.17;7.77;;;19.80;99.90;;;;;;5095481;28;20213;-58
2023/08/23 04:55:59;;;;;;;13.73;7.67;;;19.80;99.90;;;;;;5091663;28;20535;-58
2023/08/23 04:58:29;;;;;;;11.33;7.50;;;19.80;99.90;;;;;;5090437;28;20181;-58
2023/08/23 05:00:58;;;;;;;16.00;7.30;;;19.80;99.90;;;;;;5093641;28;20453;-58
2023/08/23 05:03:25;;;;;;;12.97;7.80;;;19.80;99.90;;;;;;5092105;28;20516;-58
2023/08/23 05:05:51;;;;;;;10.40;7.60;;;19.80;99.90;;;;;;5089761;28;20428;-59
2023/08/23 05:08:17;;;;;;;11.63;8.10;;;19.80;99.90;;;;;;5086433;28;20436;-59
2023/08/23 05:10:42;;;;;;;11.27;7.23;;;19.70;99.90;;;;;;5092654;28;21096;-58
2023/08/23 05:13:08;;;;;;;10.27;7.57;;;19.80;99.90;;;;;;5094102;28;20279;-58
2023/08/23 05:15:34;;;;;;;13.50;8.40;;;19.70;99.90;;;;;;5090443;28;20173;-58
2023/08/23 05:18:00;;;;;;;13.30;8.27;;;19.70;99.90;;;;;;5089997;28;20423;-58
2023/08/23 05:20:25;;;;;;;9.40;7.63;;;19.80;99.90;;;;;;5089000;28;20201;-59
2023/08/23 05:22:51;;;;;;;12.20;8.10;;;19.80;99.90;;;;;;5090431;28;20182;-57
2023/08/23 05:25:16;;;;;;;12.10;7.50;;;19.90;99.90;;;;;;5087346;28;20193;-57
2023/08/23 05:27:42;;;;;;;14.23;6.87;;;20.00;99.90;;;;;;5092001;28;20769;-58
2023/08/23 05:30:08;;;;;;;9.00;7.20;;;20.00;99.90;;;;;;5088745;28;20250;-58
2023/08/23 05:32:34;;;;;;;13.67;8.03;;;20.10;99.90;;;;;;5089424;28;20202;-57
2023/08/23 05:35:00;;;;;;;10.20;7.10;;;20.10;99.90;;;;;;5087652;28;20557;-59
2023/08/23 05:37:25;;;;;;;10.63;7.60;;;20.10;99.90;;;;;;5091855;28;20190;-58
2023/08/23 05:39:51;;;;;;;9.23;7.70;;;20.20;99.90;;;;;;5087309;28;20657;-58
2023/08/23 05:42:16;;;;;;;14.93;7.87;;;20.20;99.90;;;;;;5090956;28;20182;-59
2023/08/23 05:44:42;;;;;;;15.77;7.30;;;20.20;99.90;;;;;;5089227;28;20601;-58
2023/08/23 05:47:08;;;;;;;11.67;7.87;;;20.20;99.90;;;;;;5088811;28;20182;-59
2023/08/23 05:49:33;;;;;;;14.23;8.40;;;20.30;99.90;;;;;;5086284;28;20647;-59
2023/08/23 05:51:59;;;;;;;10.43;7.37;;;20.30;99.90;;;;;;5088351;28;20177;-59
2023/08/23 05:54:24;;;;;;;10.57;7.30;;;20.40;99.90;;;;;;5089228;28;20201;-59
2023/08/23 05:56:50;;;;;;;11.33;8.40;;;20.50;99.90;;;;;;5084776;28;20209;-58
2023/08/23 05:59:15;;;;;;;14.07;8.67;;;20.60;99.90;;;;;;5088447;28;20182;-58
2023/08/23 06:01:41;;;;;;;11.40;8.30;;;20.70;99.90;;;;;;5087461;28;20193;-57
2023/08/23 06:04:07;;;;;;;14.87;9.60;;;20.80;99.90;;;;;;5088497;28;20242;-59
2023/08/23 06:06:33;;;;;;;24.57;10.77;;;20.80;99.90;;;;;;5083813;28;20189;-58
2023/08/23 06:08:59;;;;;;;19.10;10.80;;;20.80;99.90;;;;;;5088974;28;20233;-59
2023/08/23 06:11:25;;;;;;;12.70;9.40;;;20.90;99.90;;;;;;5089087;28;20504;-58
2023/08/23 06:13:51;;;;;;;9.93;8.07;;;20.90;99.90;;;;;;5090213;28;20467;-58
2023/08/23 06:16:16;;;;;;;13.00;8.67;;;20.90;99.90;;;;;;5090546;28;20215;-59
2023/08/23 06:18:42;;;;;;;16.80;10.47;;;20.90;99.90;;;;;;5087613;28;20174;-61
2023/08/23 06:21:08;;;;;;;20.33;11.70;;;21.00;99.90;;;;;;5090603;28;20200;-59
2023/08/23 06:23:34;;;;;;;21.30;13.00;;;21.00;99.90;;;;;;5089228;28;20641;-59
2023/08/23 06:26:02;;;;;;;20.23;12.20;;;21.10;99.90;;;;;;5087929;28;20724;-59
2023/08/23 06:28:28;;;;;;;26.83;11.80;;;21.10;99.90;;;;;;5089847;28;20436;-59
2023/08/23 06:30:55;;;;;;;30.77;14.30;;;21.20;99.90;;;;;;5088303;28;21021;-59
2023/08/23 06:33:21;;;;;;;34.00;14.47;;;21.30;99.90;;;;;;5089807;28;20701;-59
2023/08/23 06:35:46;;;;;;;31.63;19.00;;;21.40;99.90;;;;;;5088144;28;20445;-59
2023/08/23 06:38:15;;;;;;;41.53;21.40;;;21.50;99.90;;;;;;5088325;28;20537;-59
2023/08/23 06:40:44;;;;;;;51.33;21.47;;;21.60;99.90;;;;;;5080808;28;20198;-58
2023/08/23 06:43:18;;;;;;;31.40;16.37;;;21.60;99.90;;;;;;5086486;28;20522;-58
2023/08/23 06:45:43;;;;;;;30.30;15.13;;;21.70;99.90;;;;;;5086131;28;20465;-58
2023/08/23 06:48:09;;;;;;;21.03;14.60;;;21.80;99.90;;;;;;5086542;28;20506;-58
2023/08/23 06:50:38;;;;;;;19.83;12.10;;;21.80;99.90;;;;;;5076337;28;20694;-58
2023/08/23 06:53:04;;;;;;;19.60;12.50;;;21.90;99.90;;;;;;5084280;28;20206;-57
2023/08/23 06:55:30;;;;;;;19.20;10.80;;;22.00;99.90;;;;;;5088894;28;20527;-57
2023/08/23 06:57:55;;;;;;;20.53;12.13;;;22.00;99.90;;;;;;5087099;28;20424;-58
2023/08/23 07:00:21;;;;;;;16.83;11.43;;;22.00;99.90;;;;;;5086029;28;20309;-58
2023/08/23 07:02:48;;;;;;;18.77;11.90;;;22.10;99.90;;;;;;5086053;28;20192;-57
2023/08/23 07:05:13;;;;;;;15.50;10.87;;;22.20;99.90;;;;;;5088812;28;20784;-58
2023/08/23 07:07:39;;;;;;;17.23;11.20;;;22.30;99.90;;;;;;5087775;28;20443;-57
2023/08/23 07:10:05;;;;;;;18.00;11.90;;;22.30;99.90;;;;;;5088891;28;20190;-57
2023/08/23 07:12:31;;;;;;;17.77;10.90;;;22.40;99.90;;;;;;5088269;28;20185;-55
2023/08/23 07:14:56;;;;;;;18.30;10.90;;;22.50;99.90;;;;;;5088631;28;20834;-55
2023/08/23 07:17:22;;;;;;;17.90;9.80;;;22.60;99.90;;;;;;5089485;28;20182;-56
2023/08/23 07:19:48;;;;;;;17.57;10.60;;;22.70;99.90;;;;;;5086098;28;20309;-60
2023/08/23 07:22:13;;;;;;;19.00;11.00;;;22.90;99.90;;;;;;5091618;28;20170;-57
2023/08/23 07:24:39;;;;;;;17.80;11.07;;;22.90;99.90;;;;;;5088875;28;20186;-57
2023/08/23 07:27:05;;;;;;;21.00;10.20;;;23.10;99.90;;;;;;5087206;28;20190;-57
2023/08/23 07:29:30;;;;;;;18.63;10.93;;;23.10;99.90;;;;;;5079473;28;20864;-56
2023/08/23 07:31:57;;;;;;;17.70;9.50;;;23.30;99.90;;;;;;5091545;28;20219;-59
2023/08/23 07:34:23;;;;;;;19.20;9.13;;;23.40;99.90;;;;;;5087505;28;20284;-58
2023/08/23 07:36:48;;;;;;;19.00;9.13;;;23.50;99.90;;;;;;5088598;28;21083;-59
2023/08/23 07:39:14;;;;;;;15.80;8.60;;;23.60;99.90;;;;;;5087741;28;20189;-57
2023/08/23 07:41:39;;;;;;;15.27;9.23;;;23.70;99.90;;;;;;5085018;28;20201;-56
2023/08/23 07:44:05;;;;;;;18.60;8.50;;;23.80;99.90;;;;;;5089099;28;20177;-59
2023/08/23 07:46:30;;;;;;;17.10;9.33;;;23.90;99.90;;;;;;5089345;28;20226;-59
2023/08/23 07:48:56;;;;;;;16.00;8.53;;;24.00;98.50;;;;;;5088437;28;20216;-58
2023/08/23 07:51:22;;;;;;;10.03;7.20;;;24.10;96.90;;;;;;5085213;28;20807;-57
2023/08/23 07:53:48;;;;;;;14.10;6.30;;;24.10;95.50;;;;;;5086153;28;20197;-59
2023/08/23 07:56:13;;;;;;;14.13;7.00;;;24.30;93.30;;;;;;5082917;28;20443;-58
2023/08/23 07:58:40;;;;;;;11.90;7.33;;;24.30;92.60;;;;;;5090339;28;20173;-58
2023/08/23 08:01:06;;;;;;;15.50;5.90;;;24.40;90.90;;;;;;5079926;28;20615;-57
2023/08/23 08:03:31;;;;;;;11.03;5.97;;;24.50;89.00;;;;;;5082577;28;20435;-58
2023/08/23 08:05:57;;;;;;;12.07;5.90;;;24.50;89.90;;;;;;5080381;28;20208;-58
2023/08/23 08:08:23;;;;;;;11.27;6.50;;;24.70;88.90;;;;;;5076467;28;20173;-58
2023/08/23 08:10:49;;;;;;;11.30;5.97;;;24.70;90.10;;;;;;5082266;28;20677;-59
2023/08/23 08:13:15;;;;;;;9.80;6.47;;;24.80;86.90;;;;;;5086459;28;20219;-59
2023/08/23 08:15:41;;;;;;;9.00;6.40;;;24.90;84.20;;;;;;5084888;28;20419;-58
2023/08/23 08:18:07;;;;;;;7.57;6.60;;;25.00;84.60;;;;;;5086348;28;20164;-58
2023/08/23 08:20:33;;;;;;;12.03;7.20;;;25.10;85.00;;;;;;5087952;28;20451;-58
2023/08/23 08:22:58;;;;;;;8.63;7.20;;;25.20;81.10;;;;;;5087222;28;20255;-58
2023/08/23 08:25:25;;;;;;;7.47;6.00;;;25.20;79.70;;;;;;5082568;28;20174;-59
2023/08/23 08:27:51;;;;;;;11.50;6.23;;;25.20;81.00;;;;;;5084759;28;20174;-58
2023/08/23 08:30:17;;;;;;;7.00;5.77;;;25.30;81.40;;;;;;5074710;28;20459;-58
2023/08/23 08:32:43;;;;;;;9.77;6.23;;;25.40;80.40;;;;;;5088428;28;20176;-59
2023/08/23 08:35:09;;;;;;;6.40;5.80;;;25.50;79.40;;;;;;5088145;28;20205;-60
2023/08/23 08:37:35;;;;;;;10.03;6.47;;;25.50;78.90;;;;;;5089153;28;20195;-61
2023/08/23 08:40:00;;;;;;;15.93;6.90;;;25.60;80.50;;;;;;5085670;28;21100;-58
2023/08/23 08:42:26;;;;;;;12.00;6.30;;;25.70;80.40;;;;;;5084695;28;20180;-58
2023/08/23 08:44:52;;;;;;;8.17;5.90;;;25.80;78.70;;;;;;5087777;28;20172;-59
2023/08/23 08:47:18;;;;;;;16.60;7.10;;;25.90;77.50;;;;;;5082216;28;20169;-58
2023/08/23 08:49:44;;;;;;;10.23;6.43;;;25.90;75.30;;;;;;5080740;28;20747;-59
2023/08/23 08:52:12;;;;;;;7.07;5.80;;;26.00;75.10;;;;;;5085455;28;20527;-60
2023/08/23 08:54:41;;;;;;;12.53;6.00;;;26.10;73.50;;;;;;5079112;28;20208;-59
2023/08/23 08:57:07;;;;;;;12.93;7.30;;;26.20;73.60;;;;;;5087274;28;20462;-59
2023/08/23 08:59:35;;;;;;;9.30;5.50;;;26.30;73.20;;;;;;5086817;28;20796;-58
2023/08/23 09:02:03;;;;;;;9.10;6.00;;;26.40;73.00;;;;;;5081946;28;20447;-59
2023/08/23 09:04:28;;;;;;;6.80;6.03;;;26.50;72.20;;;;;;5077202;28;20670;-60
2023/08/23 09:06:55;;;;;;;7.73;5.67;;;26.70;72.10;;;;;;5078920;28;20182;-60
2023/08/23 09:09:21;;;;;;;12.20;6.20;;;26.80;71.30;;;;;;5084279;28;20201;-60
2023/08/23 09:11:46;;;;;;;7.40;5.37;;;26.90;70.20;;;;;;5086235;28;20747;-60
2023/08/23 09:14:17;;;;;;;13.73;6.53;;;27.00;69.30;;;;;;5084967;28;20584;-60
2023/08/23 09:16:43;;;;;;;13.03;6.83;;;27.00;68.60;;;;;;5060642;28;20283;-60
2023/08/23 09:19:13;;;;;;;7.93;6.13;;;27.00;68.10;;;;;;5078454;28;20184;-60
2023/08/23 09:21:46;;;;;;;11.50;6.00;;;27.20;68.00;;;;;;5079863;28;20277;-60
2023/08/23 09:24:12;;;;;;;7.43;5.43;;;27.30;66.50;;;;;;5078759;28;20181;-60
2023/08/23 09:26:38;;;;;;;8.30;5.80;;;27.30;67.40;;;;;;5088704;28;20206;-59
2023/08/23 09:29:04;;;;;;;7.97;6.30;;;27.40;67.40;;;;;;5089281;28;20185;-61
2023/08/23 09:31:30;;;;;;;8.07;5.50;;;27.40;66.30;;;;;;5087295;28;20193;-61
2023/08/23 09:33:56;;;;;;;8.50;6.23;;;27.30;65.80;;;;;;5089721;28;20262;-61
2023/08/23 09:36:28;;;;;;;8.67;5.50;;;27.20;66.20;;;;;;5089506;28;20172;-59
2023/08/23 09:38:54;;;;;;;8.20;6.30;;;27.30;65.80;;;;;;5082780;28;20378;-60
2023/08/23 09:41:22;;;;;;;9.07;5.83;;;27.40;65.20;;;;;;5089041;28;20269;-60
2023/08/23 09:43:53;;;;;;;10.87;6.00;;;27.40;64.10;;;;;;5073987;28;20800;-60
2023/08/23 09:46:25;;;;;;;8.83;5.83;;;27.40;64.30;;;;;;5090691;28;20177;-61
2023/08/23 09:48:55;;;;;;;8.73;6.37;;;27.40;64.50;;;;;;5081193;28;20288;-59
2023/08/23 09:51:27;;;;;;;7.57;5.90;;;27.50;65.20;;;;;;5081214;28;20209;-61
2023/08/23 09:53:57;;;;;;;9.47;5.77;;;27.80;65.70;;;;;;5089206;28;20246;-60
2023/08/23 09:56:24;;;;;;;10.57;5.97;;;28.10;65.70;;;;;;5090390;28;20169;-60
2023/08/23 09:58:50;;;;;;;8.50;6.00;;;28.30;64.50;;;;;;5088950;28;20169;-60
2023/08/23 10:01:16;;;;;;;9.20;5.78;;;28.50;64.00;;;;;;5090142;28;20704;-60
2023/08/23 10:03:42;;;;;;;9.48;5.60;;;28.70;62.50;;;;;;5090604;28;20169;-61
2023/08/23 10:06:08;;;;;;;7.10;6.18;;;29.00;61.50;;;;;;5091249;28;20266;-61
2023/08/23 10:08:35;;;;;;;8.60;5.80;;;29.20;60.10;;;;;;5085362;28;20173;-60
2023/08/23 10:11:01;;;;;;;7.32;5.50;;;29.20;59.50;;;;;;5089123;28;20201;-60
2023/08/23 10:13:29;;;;;;;6.93;6.13;;;29.20;59.70;;;;;;5089017;28;20209;-62
2023/08/23 10:15:56;;;;;;;9.00;6.43;;;29.00;59.30;;;;;;5085300;28;20716;-60
2023/08/23 10:18:23;;;;;;;15.50;6.38;;;29.00;60.00;;;;;;5089848;28;20165;-61
2023/08/23 10:20:51;;;;;;;13.50;6.15;;;29.00;59.60;;;;;;5092802;28;20284;-61
2023/08/23 10:23:18;;;;;;;7.93;5.32;;;28.90;59.70;;;;;;5086285;28;20179;-61
2023/08/23 10:25:45;;;;;;;13.43;5.78;;;28.80;59.70;;;;;;5086512;28;20180;-61
2023/08/23 10:28:16;;;;;;;6.35;5.35;;;28.80;60.30;;;;;;5089037;28;20577;-61
2023/08/23 10:30:43;;;;;;;6.13;5.53;;;28.70;60.10;;;;;;5083289;28;20197;-60
2023/08/23 10:33:10;;;;;;;6.65;5.50;;;28.60;59.80;;;;;;5086526;28;20748;-60
2023/08/23 10:35:37;;;;;;;6.15;5.55;;;28.50;60.20;;;;;;5089741;28;20169;-61
2023/08/23 10:38:05;;;;;;;10.80;6.60;;;28.40;60.70;;;;;;5083817;28;20180;-59
2023/08/23 10:40:32;;;;;;;8.07;5.55;;;28.30;61.50;;;;;;5084725;28;20202;-60
2023/08/23 10:43:01;;;;;;;6.57;5.40;;;28.50;62.20;;;;;;5084394;28;20268;-60
2023/08/23 10:45:27;;;;;;;9.85;6.30;;;28.70;60.60;;;;;;5088985;28;20262;-60
2023/08/23 10:47:54;;;;;;;8.50;6.38;;;29.00;58.80;;;;;;5074803;28;20242;-62
2023/08/23 10:50:20;;;;;;;7.30;5.75;;;29.00;58.20;;;;;;5082340;28;20197;-61
2023/08/23 10:52:49;;;;;;;8.02;6.22;;;28.90;58.50;;;;;;5088053;28;20177;-60
2023/08/23 10:55:15;;;;;;;9.32;5.63;;;28.80;59.10;;;;;;5075686;28;20178;-60
2023/08/23 10:57:40;;;;;;;8.30;5.60;;;28.80;59.20;;;;;;5078494;28;20248;-60
2023/08/23 11:00:07;;;;;;;9.70;5.53;;;28.90;58.80;;;;;;5086446;28;20205;-59
2023/08/23 11:02:32;;;;;;;7.65;6.00;;;29.00;59.30;;;;;;5087195;28;20260;-60
2023/08/23 11:04:58;;;;;;;7.30;5.32;;;29.00;59.10;;;;;;5087324;28;20265;-59
2023/08/23 11:07:28;;;;;;;8.13;5.60;;;29.20;60.00;;;;;;5088133;28;20173;-59
2023/08/23 11:09:54;;;;;;;9.40;5.78;;;29.40;58.10;;;;;;5090786;28;20193;-59
2023/08/23 11:12:20;;;;;;;6.57;5.82;;;29.60;56.60;;;;;;5081749;28;20174;-59
2023/08/23 11:14:45;;;;;;;8.40;5.32;;;29.80;56.60;;;;;;5080455;28;20197;-59
2023/08/23 11:17:11;;;;;;;10.68;6.22;;;30.00;56.70;;;;;;5088415;28;20546;-60
2023/08/23 11:19:41;;;;;;;11.93;5.80;;;30.10;55.40;;;;;;5061495;28;20178;-60
2023/08/23 11:22:07;;;;;;;9.10;6.07;;;30.30;55.70;;;;;;5080136;28;20583;-58
2023/08/23 11:24:32;;;;;;;6.78;6.07;;;30.50;53.90;;;;;;5082468;28;20231;-58
2023/08/23 11:26:58;;;;;;;7.78;5.75;;;30.60;54.10;;;;;;5080567;28;20758;-59
2023/08/23 11:29:24;;;;;;;6.57;5.63;;;30.60;53.60;;;;;;5073924;28;20177;-59
2023/08/23 11:31:54;;;;;;;5.95;5.35;;;30.50;54.60;;;;;;5074603;28;20708;-60
2023/08/23 11:34:20;;;;;;;10.15;5.88;;;30.40;54.20;;;;;;5079595;28;20193;-59
2023/08/23 11:36:46;;;;;;;7.90;4.90;;;30.30;53.80;;;;;;5088709;28;20245;-59
2023/08/23 11:39:13;;;;;;;6.25;5.65;;;30.10;53.80;;;;;;5085278;28;20186;-60
2023/08/23 11:41:40;;;;;;;8.57;5.53;;;29.90;54.40;;;;;;5077545;28;20299;-60
2023/08/23 11:44:07;;;;;;;6.25;5.30;;;29.70;54.80;;;;;;5082260;28;20263;-56
2023/08/23 11:46:38;;;;;;;6.28;5.45;;;29.60;55.50;;;;;;5084986;28;20185;-60
2023/08/23 11:49:05;;;;;;;11.73;5.50;;;29.60;56.00;;;;;;5072951;28;20228;-59
2023/08/23 11:51:47;;;;;;;9.00;5.72;;;29.80;55.80;;;;;;5082517;28;20198;-60
2023/08/23 11:54:13;;;;;;;8.40;5.40;;;30.10;54.50;;;;;;5082419;28;20200;-60
2023/08/23 11:56:43;;;;;;;7.30;4.95;;;30.30;54.80;;;;;;5085318;28;20180;-60
2023/08/23 11:59:08;;;;;;;8.88;5.78;;;30.60;54.90;;;;;;5074855;28;20212;-59
2023/08/23 12:01:35;;;;;;;8.52;5.40;;;30.80;54.70;;;;;;5087136;28;20202;-60
2023/08/23 12:04:02;;;;;;;8.13;5.45;;;31.00;54.10;;;;;;5080566;28;20212;-60
2023/08/23 12:06:28;;;;;;;5.93;5.32;;;31.00;53.10;;;;;;5067521;28;20558;-59
2023/08/23 12:08:54;;;;;;;14.60;5.90;;;30.90;54.00;;;;;;5078642;28;20177;-57
2023/08/23 12:11:20;;;;;;;8.65;5.57;;;31.00;54.20;;;;;;5085412;28;20215;-59
2023/08/23 12:13:46;;;;;;;13.50;6.45;;;31.10;53.10;;;;;;5082156;28;20243;-59
2023/08/23 12:16:12;;;;;;;9.40;5.75;;;31.10;54.20;;;;;;5086333;28;20212;-60
2023/08/23 12:18:37;;;;;;;9.07;5.60;;;31.00;54.70;;;;;;5082309;28;20566;-60
2023/08/23 12:21:04;;;;;;;11.02;5.75;;;31.10;54.90;;;;;;5073342;28;20276;-59
2023/08/23 12:23:30;;;;;;;8.60;5.70;;;31.40;55.00;;;;;;5085126;28;20181;-59
2023/08/23 12:25:56;;;;;;;11.95;6.00;;;31.60;54.10;;;;;;5086024;28;20268;-59
2023/08/23 12:28:22;;;;;;;12.13;5.65;;;31.80;54.20;;;;;;5083245;28;20264;-59
2023/08/23 12:30:47;;;;;;;6.43;5.15;;;31.90;54.00;;;;;;5084533;28;20201;-59
2023/08/23 12:33:13;;;;;;;10.32;6.18;;;32.10;54.10;;;;;;5083910;28;20252;-59
2023/08/23 12:35:38;;;;;;;6.68;5.22;;;32.10;53.40;;;;;;5086557;28;20189;-60
2023/08/23 12:38:04;;;;;;;8.80;6.80;;;31.80;52.30;;;;;;5070476;28;20252;-60